CES2788 VHHH-ZSNJ
Flight info
| Callsign | CES2788 |
|---|---|
| Flight time | 1h 50m |
| Altitude | 33099 |
| Route | LEKEN V601 DOTMI/K0887S0950 A470 EMRID W135 GOSRO |
| Aircraft | A320/M-SDE3FGHIRWY/LB1 |
Departure
| Time | 2026-05-05 01:48 |
|---|---|
| Airport | Hong Kong International Airport (VHHH) |
Arrival
| Time | 2026-05-05 03:38 |
|---|---|
| Airport | Nanjing Lukou International Airport (ZSNJ) |
| Time | Latitude | Longitude | Altitude | Speed | Heading |
|---|---|---|---|---|---|
| 2026-05-05 01:32 | 22.30888 | 113.91901 | 37 ft | 0 kts | 251° |
| 2026-05-05 01:38 | 22.30895 | 113.91921 | 37 ft | 4 kts | 251° |
| 2026-05-05 01:38 | 22.30904 | 113.91948 | 36 ft | 4 kts | 251° |
| 2026-05-05 01:38 | 22.30911 | 113.91971 | 34 ft | 4 kts | 234° |
| 2026-05-05 01:38 | 22.30931 | 113.91985 | 34 ft | 4 kts | 178° |
| 2026-05-05 01:39 | 22.30948 | 113.91982 | 35 ft | 0 kts | 161° |
| 2026-05-05 01:40 | 22.30946 | 113.91983 | 35 ft | 1 kts | 161° |
| 2026-05-05 01:40 | 22.30917 | 113.91994 | 35 ft | 8 kts | 161° |
| 2026-05-05 01:40 | 22.30850 | 113.92019 | 37 ft | 12 kts | 161° |
| 2026-05-05 01:41 | 22.30783 | 113.92056 | 37 ft | 11 kts | 126° |
| 2026-05-05 01:41 | 22.30771 | 113.92136 | 37 ft | 11 kts | 136° |
| 2026-05-05 01:41 | 22.30696 | 113.92168 | 37 ft | 12 kts | 169° |
| 2026-05-05 01:41 | 22.30645 | 113.92105 | 37 ft | 12 kts | 250° |
| 2026-05-05 01:42 | 22.30618 | 113.92020 | 36 ft | 14 kts | 251° |
| 2026-05-05 01:42 | 22.30580 | 113.91904 | 37 ft | 19 kts | 250° |
| 2026-05-05 01:42 | 22.30533 | 113.91756 | 35 ft | 20 kts | 250° |
| 2026-05-05 01:42 | 22.30488 | 113.91619 | 35 ft | 18 kts | 250° |
| 2026-05-05 01:43 | 22.30449 | 113.91496 | 37 ft | 16 kts | 251° |
| 2026-05-05 01:43 | 22.30413 | 113.91385 | 36 ft | 15 kts | 251° |
| 2026-05-05 01:43 | 22.30380 | 113.91284 | 37 ft | 15 kts | 250° |
| 2026-05-05 01:43 | 22.30340 | 113.91159 | 37 ft | 20 kts | 251° |
| 2026-05-05 01:44 | 22.30287 | 113.90996 | 35 ft | 26 kts | 250° |
| 2026-05-05 01:44 | 22.30230 | 113.90819 | 37 ft | 24 kts | 251° |
| 2026-05-05 01:44 | 22.30178 | 113.90657 | 37 ft | 22 kts | 251° |
| 2026-05-05 01:44 | 22.30129 | 113.90506 | 37 ft | 21 kts | 251° |
| 2026-05-05 01:45 | 22.30082 | 113.90360 | 37 ft | 21 kts | 250° |
| 2026-05-05 01:45 | 22.30035 | 113.90216 | 37 ft | 22 kts | 250° |
| 2026-05-05 01:45 | 22.29982 | 113.90051 | 36 ft | 23 kts | 251° |
| 2026-05-05 01:45 | 22.29931 | 113.89893 | 37 ft | 20 kts | 250° |
| 2026-05-05 01:46 | 22.29885 | 113.89759 | 37 ft | 14 kts | 240° |
| 2026-05-05 01:46 | 22.29806 | 113.89742 | 37 ft | 13 kts | 159° |
| 2026-05-05 01:46 | 22.29714 | 113.89777 | 37 ft | 15 kts | 161° |
| 2026-05-05 01:46 | 22.29635 | 113.89834 | 37 ft | 14 kts | 102° |
| 2026-05-05 01:47 | 22.29655 | 113.89903 | 37 ft | 0 kts | 70° |
| 2026-05-05 01:47 | 22.29664 | 113.89932 | 37 ft | 21 kts | 71° |
| 2026-05-05 01:47 | 22.29798 | 113.90357 | 34 ft | 94 kts | 70° |
| 2026-05-05 01:47 | 22.30078 | 113.91217 | 41 ft | 146 kts | 71° |
| 2026-05-05 01:48 | 22.30435 | 113.92318 | 451 ft | 164 kts | 72° |
| 2026-05-05 01:48 | 22.30814 | 113.93527 | 1030 ft | 172 kts | 72° |
| 2026-05-05 01:48 | 22.31205 | 113.94745 | 1860 ft | 173 kts | 73° |
| 2026-05-05 01:48 | 22.31618 | 113.96028 | 2392 ft | 193 kts | 74° |
| 2026-05-05 01:49 | 22.32088 | 113.97501 | 3058 ft | 219 kts | 74° |
| 2026-05-05 01:49 | 22.32594 | 113.99078 | 3894 ft | 226 kts | 72° |
| 2026-05-05 01:49 | 22.33120 | 114.00701 | 4690 ft | 232 kts | 71° |
| 2026-05-05 01:49 | 22.33652 | 114.02364 | 5456 ft | 237 kts | 73° |
| 2026-05-05 01:50 | 22.33821 | 114.04148 | 6154 ft | 243 kts | 97° |
| 2026-05-05 01:50 | 22.33335 | 114.05895 | 6869 ft | 245 kts | 121° |
| 2026-05-05 01:50 | 22.32276 | 114.07321 | 7606 ft | 244 kts | 143° |
| 2026-05-05 01:50 | 22.30798 | 114.08309 | 8110 ft | 258 kts | 162° |
| 2026-05-05 01:51 | 22.29042 | 114.08718 | 8826 ft | 260 kts | 180° |
| 2026-05-05 01:51 | 22.27197 | 114.08704 | 9389 ft | 275 kts | 183° |
| 2026-05-05 01:51 | 22.25244 | 114.08678 | 10033 ft | 284 kts | 183° |
| 2026-05-05 01:51 | 22.23231 | 114.08657 | 10409 ft | 305 kts | 182° |
| 2026-05-05 01:52 | 22.21023 | 114.08636 | 10648 ft | 328 kts | 182° |
| 2026-05-05 01:52 | 22.18664 | 114.08819 | 10801 ft | 354 kts | 168° |
| 2026-05-05 01:52 | 22.16335 | 114.09925 | 10937 ft | 380 kts | 147° |
| 2026-05-05 01:52 | 22.14491 | 114.12034 | 11349 ft | 396 kts | 124° |
| 2026-05-05 01:53 | 22.13175 | 114.14672 | 11928 ft | 402 kts | 119° |
| 2026-05-05 01:53 | 22.11893 | 114.17370 | 12534 ft | 406 kts | 119° |
| 2026-05-05 01:53 | 22.10796 | 114.20194 | 13097 ft | 414 kts | 107° |
| 2026-05-05 01:53 | 22.10279 | 114.23273 | 13694 ft | 419 kts | 100° |
| 2026-05-05 01:54 | 22.09840 | 114.26393 | 14195 ft | 423 kts | 100° |
| 2026-05-05 01:54 | 22.09407 | 114.29551 | 14674 ft | 427 kts | 100° |
| 2026-05-05 01:54 | 22.08976 | 114.32738 | 15145 ft | 432 kts | 100° |
| 2026-05-05 01:54 | 22.08541 | 114.35951 | 15606 ft | 436 kts | 100° |
| 2026-05-05 01:55 | 22.08098 | 114.39194 | 16074 ft | 440 kts | 100° |
| 2026-05-05 01:55 | 22.07644 | 114.42474 | 16529 ft | 444 kts | 100° |
| 2026-05-05 01:55 | 22.07183 | 114.45783 | 16972 ft | 448 kts | 100° |
| 2026-05-05 01:55 | 22.06715 | 114.49119 | 17415 ft | 452 kts | 100° |
| 2026-05-05 01:56 | 22.06242 | 114.52480 | 17834 ft | 456 kts | 100° |
| 2026-05-05 01:56 | 22.05766 | 114.55880 | 18242 ft | 461 kts | 100° |
| 2026-05-05 01:56 | 22.05288 | 114.59308 | 18596 ft | 465 kts | 100° |
| 2026-05-05 01:56 | 22.04804 | 114.62772 | 18941 ft | 469 kts | 100° |
| 2026-05-05 01:57 | 22.04313 | 114.66259 | 19284 ft | 473 kts | 100° |
| 2026-05-05 01:57 | 22.03816 | 114.69783 | 19630 ft | 477 kts | 100° |
| 2026-05-05 01:57 | 22.03316 | 114.73328 | 19973 ft | 480 kts | 100° |
| 2026-05-05 01:57 | 22.02814 | 114.76896 | 20313 ft | 483 kts | 100° |
| 2026-05-05 01:58 | 22.02309 | 114.80490 | 20637 ft | 487 kts | 100° |
| 2026-05-05 01:58 | 22.01800 | 114.84112 | 20958 ft | 490 kts | 100° |
| 2026-05-05 01:58 | 22.01285 | 114.87760 | 21279 ft | 494 kts | 100° |
| 2026-05-05 01:58 | 22.00766 | 114.91425 | 21593 ft | 497 kts | 100° |
| 2026-05-05 01:59 | 22.00242 | 114.95120 | 21895 ft | 500 kts | 100° |
| 2026-05-05 01:59 | 21.99713 | 114.98834 | 22189 ft | 504 kts | 100° |
| 2026-05-05 01:59 | 21.99177 | 115.02583 | 22475 ft | 507 kts | 100° |
| 2026-05-05 01:59 | 21.98636 | 115.06349 | 22767 ft | 510 kts | 100° |
| 2026-05-05 02:00 | 21.98277 | 115.08853 | 22966 ft | 512 kts | 99° |
| 2026-05-05 02:00 | 21.97734 | 115.12652 | 23250 ft | 514 kts | 99° |
| 2026-05-05 02:00 | 21.97189 | 115.16469 | 23535 ft | 517 kts | 99° |
| 2026-05-05 02:00 | 21.96639 | 115.20309 | 23781 ft | 519 kts | 99° |
| 2026-05-05 02:01 | 21.96086 | 115.24156 | 24017 ft | 521 kts | 100° |
| 2026-05-05 02:01 | 21.95528 | 115.28019 | 24262 ft | 522 kts | 100° |
| 2026-05-05 02:01 | 21.94969 | 115.31890 | 24499 ft | 524 kts | 100° |
| 2026-05-05 02:01 | 21.94410 | 115.35768 | 24734 ft | 526 kts | 100° |
| 2026-05-05 02:02 | 21.93847 | 115.39672 | 24972 ft | 528 kts | 100° |
| 2026-05-05 02:02 | 21.93281 | 115.43589 | 25206 ft | 529 kts | 100° |
| 2026-05-05 02:02 | 21.92710 | 115.47513 | 25430 ft | 531 kts | 100° |
| 2026-05-05 02:02 | 21.92157 | 115.51449 | 25657 ft | 533 kts | 97° |
| 2026-05-05 02:03 | 21.92145 | 115.55448 | 25849 ft | 536 kts | 83° |
| 2026-05-05 02:03 | 21.92991 | 115.59347 | 26067 ft | 535 kts | 68° |
| 2026-05-05 02:03 | 21.94665 | 115.62899 | 26381 ft | 530 kts | 53° |
| 2026-05-05 02:03 | 21.97027 | 115.65908 | 26717 ft | 523 kts | 39° |
| 2026-05-05 02:04 | 21.99896 | 115.68253 | 27031 ft | 515 kts | 27° |
| 2026-05-05 02:04 | 22.02929 | 115.70303 | 27346 ft | 515 kts | 27° |
| 2026-05-05 02:04 | 22.05969 | 115.72342 | 27667 ft | 514 kts | 27° |
| 2026-05-05 02:04 | 22.09011 | 115.74376 | 27996 ft | 514 kts | 27° |
| 2026-05-05 02:05 | 22.12053 | 115.76408 | 28327 ft | 514 kts | 27° |
| 2026-05-05 02:05 | 22.15092 | 115.78442 | 28658 ft | 514 kts | 27° |
| 2026-05-05 02:05 | 22.18127 | 115.80481 | 28982 ft | 514 kts | 27° |
| 2026-05-05 02:05 | 22.21162 | 115.82527 | 29324 ft | 514 kts | 27° |
| 2026-05-05 02:06 | 22.24192 | 115.84575 | 29656 ft | 515 kts | 27° |
| 2026-05-05 02:06 | 22.27223 | 115.86631 | 29999 ft | 515 kts | 27° |
| 2026-05-05 02:06 | 22.30257 | 115.88687 | 30295 ft | 514 kts | 27° |
| 2026-05-05 02:06 | 22.33290 | 115.90740 | 30592 ft | 514 kts | 26° |
| 2026-05-05 02:07 | 22.36318 | 115.92784 | 30889 ft | 513 kts | 26° |
| 2026-05-05 02:07 | 22.39347 | 115.94823 | 31202 ft | 513 kts | 26° |
| 2026-05-05 02:07 | 22.42372 | 115.96861 | 31513 ft | 512 kts | 26° |
| 2026-05-05 02:07 | 22.45393 | 115.98900 | 31828 ft | 512 kts | 26° |
| 2026-05-05 02:08 | 22.48415 | 116.00944 | 32218 ft | 512 kts | 26° |
| 2026-05-05 02:08 | 22.51429 | 116.02988 | 32619 ft | 511 kts | 26° |
| 2026-05-05 02:08 | 22.54434 | 116.05028 | 32998 ft | 510 kts | 26° |
| 2026-05-05 02:08 | 22.57440 | 116.07066 | 33140 ft | 509 kts | 26° |
| 2026-05-05 02:09 | 22.63461 | 116.11144 | 33160 ft | 510 kts | 26° |
| 2026-05-05 02:09 | 22.69474 | 116.15224 | 33165 ft | 510 kts | 26° |
| 2026-05-05 02:10 | 22.75308 | 116.19684 | 33164 ft | 515 kts | 32° |
| 2026-05-05 02:10 | 22.80998 | 116.24412 | 33167 ft | 516 kts | 32° |
| 2026-05-05 02:11 | 22.86693 | 116.29156 | 33172 ft | 516 kts | 32° |
| 2026-05-05 02:11 | 22.92396 | 116.33892 | 33178 ft | 517 kts | 31° |
| 2026-05-05 02:12 | 23.00971 | 116.40992 | 33185 ft | 517 kts | 31° |
| 2026-05-05 02:13 | 23.06708 | 116.45719 | 33184 ft | 517 kts | 31° |
| 2026-05-05 02:13 | 23.12439 | 116.50450 | 33188 ft | 517 kts | 31° |
| 2026-05-05 02:14 | 23.18163 | 116.55190 | 33179 ft | 518 kts | 31° |
| 2026-05-05 02:14 | 23.23891 | 116.59940 | 33188 ft | 518 kts | 31° |
| 2026-05-05 02:15 | 23.29621 | 116.64696 | 33174 ft | 518 kts | 31° |
| 2026-05-05 02:15 | 23.35345 | 116.69456 | 33178 ft | 518 kts | 31° |
| 2026-05-05 02:16 | 23.41076 | 116.74229 | 33180 ft | 519 kts | 31° |
| 2026-05-05 02:16 | 23.46498 | 116.79480 | 33172 ft | 527 kts | 41° |
| 2026-05-05 02:17 | 23.51577 | 116.85247 | 33171 ft | 527 kts | 41° |
| 2026-05-05 02:17 | 23.56659 | 116.91013 | 33166 ft | 527 kts | 41° |
| 2026-05-05 02:18 | 23.61743 | 116.96783 | 33166 ft | 528 kts | 41° |
| 2026-05-05 02:18 | 23.66819 | 117.02566 | 33168 ft | 528 kts | 41° |
| 2026-05-05 02:19 | 23.71903 | 117.08358 | 33168 ft | 529 kts | 41° |
| 2026-05-05 02:19 | 23.77001 | 117.14157 | 33171 ft | 529 kts | 39° |
| 2026-05-05 02:20 | 23.82342 | 117.19640 | 33171 ft | 526 kts | 35° |
| 2026-05-05 02:20 | 23.87886 | 117.24839 | 33171 ft | 525 kts | 34° |
| 2026-05-05 02:21 | 23.93421 | 117.30062 | 33168 ft | 527 kts | 35° |
| 2026-05-05 02:21 | 23.98888 | 117.35410 | 33169 ft | 528 kts | 36° |
| 2026-05-05 02:22 | 24.04332 | 117.40811 | 33171 ft | 528 kts | 36° |
| 2026-05-05 02:22 | 24.09797 | 117.46195 | 33168 ft | 529 kts | 36° |
| 2026-05-05 02:23 | 24.15167 | 117.51727 | 33165 ft | 534 kts | 42° |
| 2026-05-05 02:23 | 24.20185 | 117.57729 | 33168 ft | 535 kts | 42° |
| 2026-05-05 02:24 | 24.25194 | 117.63757 | 33169 ft | 535 kts | 42° |
| 2026-05-05 02:24 | 24.30210 | 117.69790 | 33161 ft | 535 kts | 42° |
| 2026-05-05 02:25 | 24.35230 | 117.75818 | 33164 ft | 535 kts | 42° |
| 2026-05-05 02:25 | 24.40246 | 117.81861 | 33170 ft | 536 kts | 42° |
| 2026-05-05 02:26 | 24.45270 | 117.87916 | 33174 ft | 536 kts | 42° |
| 2026-05-05 02:26 | 24.50293 | 117.93976 | 33173 ft | 537 kts | 42° |
| 2026-05-05 02:27 | 24.55313 | 118.00049 | 33176 ft | 537 kts | 42° |
| 2026-05-05 02:27 | 24.60380 | 118.06061 | 33172 ft | 536 kts | 40° |
| 2026-05-05 02:28 | 24.65586 | 118.11910 | 33175 ft | 535 kts | 39° |
| 2026-05-05 02:28 | 24.70791 | 118.17692 | 33174 ft | 535 kts | 40° |
| 2026-05-05 02:29 | 24.75981 | 118.23571 | 33177 ft | 536 kts | 40° |
| 2026-05-05 02:29 | 24.81142 | 118.29507 | 33171 ft | 537 kts | 41° |
| 2026-05-05 02:30 | 24.86310 | 118.35452 | 33177 ft | 537 kts | 40° |
| 2026-05-05 02:30 | 24.91491 | 118.41374 | 33172 ft | 537 kts | 40° |
| 2026-05-05 02:31 | 24.96681 | 118.47300 | 33181 ft | 537 kts | 40° |
| 2026-05-05 02:31 | 25.01865 | 118.53242 | 33195 ft | 538 kts | 41° |
| 2026-05-05 02:32 | 25.07047 | 118.59200 | 33196 ft | 538 kts | 41° |
| 2026-05-05 02:32 | 25.12204 | 118.65175 | 33198 ft | 539 kts | 42° |
| 2026-05-05 02:33 | 25.17256 | 118.71277 | 33199 ft | 538 kts | 43° |
| 2026-05-05 02:33 | 25.22273 | 118.77426 | 33207 ft | 539 kts | 43° |
| 2026-05-05 02:34 | 25.27323 | 118.83558 | 33211 ft | 539 kts | 43° |
| 2026-05-05 02:34 | 25.32380 | 118.89671 | 33211 ft | 539 kts | 43° |
| 2026-05-05 02:35 | 25.37462 | 118.95767 | 33215 ft | 538 kts | 41° |
| 2026-05-05 02:35 | 25.42616 | 119.01757 | 33212 ft | 538 kts | 41° |
| 2026-05-05 02:36 | 25.47795 | 119.07731 | 33206 ft | 538 kts | 41° |
| 2026-05-05 02:36 | 25.52947 | 119.13747 | 33209 ft | 539 kts | 41° |
| 2026-05-05 02:37 | 25.58085 | 119.19794 | 33200 ft | 539 kts | 42° |
| 2026-05-05 02:37 | 25.63228 | 119.25834 | 33209 ft | 539 kts | 41° |
| 2026-05-05 02:38 | 25.68374 | 119.31874 | 33212 ft | 539 kts | 41° |
| 2026-05-05 02:38 | 25.73965 | 119.37277 | 33214 ft | 526 kts | 26° |
| 2026-05-05 02:39 | 25.80445 | 119.40695 | 33216 ft | 508 kts | 9° |
| 2026-05-05 02:39 | 25.87201 | 119.42961 | 33224 ft | 507 kts | 8° |
| 2026-05-05 02:40 | 25.93963 | 119.45252 | 33226 ft | 508 kts | 8° |
| 2026-05-05 02:40 | 25.99574 | 119.47174 | 33229 ft | 508 kts | 9° |
| 2026-05-05 02:41 | 26.06329 | 119.49486 | 33230 ft | 508 kts | 8° |
| 2026-05-05 02:41 | 26.14183 | 119.52164 | 33226 ft | 508 kts | 8° |
| 2026-05-05 02:42 | 26.19859 | 119.54057 | 33219 ft | 505 kts | 5° |
| 2026-05-05 02:42 | 26.24388 | 119.54836 | 33222 ft | 490 kts | 353° |
| 2026-05-05 02:42 | 26.26678 | 119.54894 | 33217 ft | 486 kts | 351° |
| 2026-05-05 02:43 | 26.33446 | 119.54955 | 33221 ft | 487 kts | 351° |
| 2026-05-05 02:43 | 26.40227 | 119.55033 | 33221 ft | 487 kts | 351° |
| 2026-05-05 02:44 | 26.47015 | 119.55093 | 33234 ft | 487 kts | 351° |
| 2026-05-05 02:44 | 26.53754 | 119.55132 | 33233 ft | 488 kts | 351° |
| 2026-05-05 02:45 | 26.60586 | 119.55166 | 33241 ft | 488 kts | 351° |
| 2026-05-05 02:45 | 26.67333 | 119.55208 | 33242 ft | 488 kts | 351° |
| 2026-05-05 02:46 | 26.74128 | 119.55253 | 33243 ft | 488 kts | 351° |
| 2026-05-05 02:46 | 26.80929 | 119.55298 | 33243 ft | 489 kts | 351° |
| 2026-05-05 02:47 | 26.87735 | 119.55344 | 33252 ft | 489 kts | 351° |
| 2026-05-05 02:47 | 26.94542 | 119.55382 | 33251 ft | 489 kts | 350° |
| 2026-05-05 02:48 | 27.01344 | 119.55416 | 33250 ft | 489 kts | 350° |
| 2026-05-05 02:48 | 27.08154 | 119.55452 | 33250 ft | 489 kts | 351° |
| 2026-05-05 02:49 | 27.14959 | 119.55502 | 33252 ft | 489 kts | 351° |
| 2026-05-05 02:49 | 27.21769 | 119.55553 | 33254 ft | 489 kts | 350° |
| 2026-05-05 02:50 | 27.28575 | 119.55594 | 33251 ft | 489 kts | 350° |
| 2026-05-05 02:50 | 27.35380 | 119.55605 | 33249 ft | 489 kts | 350° |
| 2026-05-05 02:51 | 27.42183 | 119.55603 | 33246 ft | 489 kts | 350° |
| 2026-05-05 02:51 | 27.48995 | 119.55625 | 33245 ft | 490 kts | 350° |
| 2026-05-05 02:52 | 27.55816 | 119.55670 | 33242 ft | 490 kts | 350° |
| 2026-05-05 02:52 | 27.62644 | 119.55715 | 33240 ft | 490 kts | 350° |
| 2026-05-05 02:53 | 27.69464 | 119.55754 | 33236 ft | 491 kts | 350° |
| 2026-05-05 02:53 | 27.76293 | 119.55797 | 33241 ft | 491 kts | 350° |
| 2026-05-05 02:54 | 27.83128 | 119.55838 | 33245 ft | 492 kts | 350° |
| 2026-05-05 02:54 | 27.89973 | 119.55877 | 33244 ft | 492 kts | 350° |
| 2026-05-05 02:55 | 27.96820 | 119.55937 | 33243 ft | 492 kts | 350° |
| 2026-05-05 02:55 | 28.03672 | 119.56047 | 33239 ft | 492 kts | 351° |
| 2026-05-05 02:56 | 28.10524 | 119.56170 | 33244 ft | 493 kts | 351° |
| 2026-05-05 02:56 | 28.17404 | 119.56457 | 33241 ft | 495 kts | 353° |
| 2026-05-05 02:57 | 28.24293 | 119.56905 | 33237 ft | 496 kts | 353° |
| 2026-05-05 02:57 | 28.31174 | 119.57344 | 33224 ft | 495 kts | 353° |
| 2026-05-05 02:58 | 28.38074 | 119.57727 | 33226 ft | 496 kts | 352° |
| 2026-05-05 02:58 | 28.44962 | 119.58091 | 33234 ft | 496 kts | 352° |
| 2026-05-05 02:59 | 28.51857 | 119.58488 | 33219 ft | 496 kts | 353° |
| 2026-05-05 02:59 | 28.58766 | 119.58926 | 33220 ft | 497 kts | 353° |
| 2026-05-05 03:00 | 28.65672 | 119.59362 | 33217 ft | 497 kts | 353° |
| 2026-05-05 03:00 | 28.72583 | 119.59790 | 33217 ft | 498 kts | 353° |
| 2026-05-05 03:01 | 28.79491 | 119.60216 | 33207 ft | 497 kts | 353° |
| 2026-05-05 03:01 | 28.86406 | 119.60647 | 33199 ft | 497 kts | 353° |
| 2026-05-05 03:02 | 28.93310 | 119.61078 | 33204 ft | 498 kts | 353° |
| 2026-05-05 03:02 | 29.00234 | 119.61505 | 33209 ft | 497 kts | 353° |
| 2026-05-05 03:03 | 29.07150 | 119.61929 | 33208 ft | 498 kts | 353° |
| 2026-05-05 03:03 | 29.14064 | 119.62362 | 33215 ft | 498 kts | 353° |
| 2026-05-05 03:04 | 29.20981 | 119.62783 | 33230 ft | 498 kts | 353° |
| 2026-05-05 03:04 | 29.27892 | 119.63208 | 33229 ft | 496 kts | 353° |
| 2026-05-05 03:05 | 29.34743 | 119.63620 | 33230 ft | 496 kts | 353° |
| 2026-05-05 03:05 | 29.41686 | 119.64040 | 33225 ft | 497 kts | 354° |
| 2026-05-05 03:06 | 29.48600 | 119.64475 | 33223 ft | 497 kts | 354° |
| 2026-05-05 03:06 | 29.52065 | 119.64970 | 33218 ft | 508 kts | 4° |
| 2026-05-05 03:06 | 29.55492 | 119.66113 | 33218 ft | 520 kts | 14° |
| 2026-05-05 03:07 | 29.61901 | 119.70211 | 33219 ft | 533 kts | 28° |
| 2026-05-05 03:07 | 29.68033 | 119.74932 | 33207 ft | 534 kts | 28° |
| 2026-05-05 03:08 | 29.74172 | 119.79739 | 33211 ft | 534 kts | 28° |
| 2026-05-05 03:08 | 29.80317 | 119.84527 | 33207 ft | 532 kts | 28° |
| 2026-05-05 03:09 | 29.86464 | 119.89292 | 33214 ft | 532 kts | 28° |
| 2026-05-05 03:09 | 29.92606 | 119.94056 | 33080 ft | 532 kts | 28° |
| 2026-05-05 03:09 | 29.95666 | 119.96438 | 32626 ft | 530 kts | 29° |
| 2026-05-05 03:10 | 29.98717 | 119.98818 | 32179 ft | 529 kts | 29° |
| 2026-05-05 03:10 | 30.01764 | 120.01197 | 31738 ft | 528 kts | 29° |
| 2026-05-05 03:10 | 30.04810 | 120.03571 | 31300 ft | 528 kts | 29° |
| 2026-05-05 03:10 | 30.07850 | 120.05943 | 30872 ft | 528 kts | 29° |
| 2026-05-05 03:11 | 30.10898 | 120.08326 | 30448 ft | 528 kts | 29° |
| 2026-05-05 03:11 | 30.13942 | 120.10707 | 30017 ft | 528 kts | 29° |
| 2026-05-05 03:11 | 30.16979 | 120.13084 | 29513 ft | 527 kts | 30° |
| 2026-05-05 03:11 | 30.20007 | 120.15459 | 29027 ft | 526 kts | 30° |
| 2026-05-05 03:12 | 30.23032 | 120.17832 | 28539 ft | 525 kts | 30° |
| 2026-05-05 03:12 | 30.26162 | 120.19929 | 28074 ft | 516 kts | 19° |
| 2026-05-05 03:12 | 30.29521 | 120.21274 | 27609 ft | 506 kts | 8° |
| 2026-05-05 03:12 | 30.32970 | 120.21844 | 27121 ft | 496 kts | 357° |
| 2026-05-05 03:13 | 30.36381 | 120.21664 | 26622 ft | 487 kts | 346° |
| 2026-05-05 03:13 | 30.39647 | 120.20783 | 26130 ft | 479 kts | 336° |
| 2026-05-05 03:13 | 30.42682 | 120.19258 | 25644 ft | 473 kts | 326° |
| 2026-05-05 03:13 | 30.45417 | 120.17176 | 25167 ft | 469 kts | 319° |
| 2026-05-05 03:14 | 30.48040 | 120.14916 | 24699 ft | 471 kts | 319° |
| 2026-05-05 03:14 | 30.50674 | 120.12652 | 24232 ft | 471 kts | 320° |
| 2026-05-05 03:14 | 30.53281 | 120.10432 | 23775 ft | 457 kts | 320° |
| 2026-05-05 03:14 | 30.55811 | 120.08293 | 23260 ft | 444 kts | 321° |
| 2026-05-05 03:15 | 30.58279 | 120.06210 | 22720 ft | 434 kts | 321° |
| 2026-05-05 03:15 | 30.60693 | 120.04171 | 22198 ft | 425 kts | 321° |
| 2026-05-05 03:15 | 30.63056 | 120.02166 | 21681 ft | 417 kts | 321° |
| 2026-05-05 03:15 | 30.65374 | 120.00194 | 21173 ft | 409 kts | 321° |
| 2026-05-05 03:16 | 30.67650 | 119.98250 | 20672 ft | 403 kts | 321° |
| 2026-05-05 03:16 | 30.69892 | 119.96331 | 20177 ft | 397 kts | 321° |
| 2026-05-05 03:16 | 30.72103 | 119.94437 | 19699 ft | 391 kts | 321° |
| 2026-05-05 03:16 | 30.74277 | 119.92575 | 19218 ft | 386 kts | 321° |
| 2026-05-05 03:17 | 30.76402 | 119.90758 | 18756 ft | 382 kts | 322° |
| 2026-05-05 03:17 | 30.78530 | 119.88942 | 18289 ft | 378 kts | 322° |
| 2026-05-05 03:17 | 30.80639 | 119.87143 | 17758 ft | 374 kts | 322° |
| 2026-05-05 03:17 | 30.82729 | 119.85356 | 17236 ft | 371 kts | 322° |
| 2026-05-05 03:18 | 30.84798 | 119.83585 | 16724 ft | 368 kts | 322° |
| 2026-05-05 03:18 | 30.86856 | 119.81824 | 16217 ft | 366 kts | 321° |
| 2026-05-05 03:18 | 30.88898 | 119.80074 | 15720 ft | 363 kts | 321° |
| 2026-05-05 03:18 | 30.90923 | 119.78330 | 15233 ft | 361 kts | 321° |
| 2026-05-05 03:19 | 30.94942 | 119.74871 | 14282 ft | 357 kts | 321° |
| 2026-05-05 03:19 | 30.96933 | 119.73156 | 13809 ft | 355 kts | 321° |
| 2026-05-05 03:19 | 30.98913 | 119.71452 | 13282 ft | 352 kts | 321° |
| 2026-05-05 03:20 | 31.00876 | 119.69765 | 12761 ft | 349 kts | 322° |
| 2026-05-05 03:20 | 31.02823 | 119.68093 | 12249 ft | 346 kts | 322° |
| 2026-05-05 03:20 | 31.04744 | 119.66444 | 11901 ft | 338 kts | 322° |
| 2026-05-05 03:20 | 31.06600 | 119.64852 | 11840 ft | 324 kts | 322° |
| 2026-05-05 03:21 | 31.08375 | 119.63326 | 11801 ft | 310 kts | 322° |
| 2026-05-05 03:21 | 31.10082 | 119.61853 | 11674 ft | 300 kts | 322° |
| 2026-05-05 03:21 | 31.11741 | 119.60417 | 11461 ft | 295 kts | 322° |
| 2026-05-05 03:21 | 31.13377 | 119.58998 | 11158 ft | 292 kts | 322° |
| 2026-05-05 03:22 | 31.15009 | 119.57586 | 10834 ft | 291 kts | 322° |
| 2026-05-05 03:22 | 31.16634 | 119.56180 | 10509 ft | 290 kts | 322° |
| 2026-05-05 03:22 | 31.18255 | 119.54779 | 10148 ft | 290 kts | 322° |
| 2026-05-05 03:22 | 31.19327 | 119.53852 | 9924 ft | 290 kts | 322° |
| 2026-05-05 03:23 | 31.20948 | 119.52448 | 9534 ft | 290 kts | 322° |
| 2026-05-05 03:23 | 31.22566 | 119.51048 | 9190 ft | 289 kts | 322° |
| 2026-05-05 03:23 | 31.24181 | 119.49650 | 8821 ft | 289 kts | 322° |
| 2026-05-05 03:23 | 31.26339 | 119.47781 | 8302 ft | 288 kts | 322° |
| 2026-05-05 03:24 | 31.27945 | 119.46391 | 7945 ft | 286 kts | 322° |
| 2026-05-05 03:24 | 31.29008 | 119.45470 | 7888 ft | 287 kts | 323° |
| 2026-05-05 03:24 | 31.30613 | 119.44077 | 7894 ft | 288 kts | 322° |
| 2026-05-05 03:24 | 31.32222 | 119.42676 | 7894 ft | 288 kts | 322° |
| 2026-05-05 03:25 | 31.33834 | 119.41276 | 7901 ft | 289 kts | 323° |
| 2026-05-05 03:25 | 31.35445 | 119.39877 | 7902 ft | 289 kts | 322° |
| 2026-05-05 03:25 | 31.37062 | 119.38475 | 7897 ft | 289 kts | 323° |
| 2026-05-05 03:25 | 31.38675 | 119.37075 | 7900 ft | 289 kts | 322° |
| 2026-05-05 03:26 | 31.40288 | 119.35672 | 7896 ft | 289 kts | 322° |
| 2026-05-05 03:26 | 31.41902 | 119.34269 | 7902 ft | 289 kts | 322° |
| 2026-05-05 03:26 | 31.43510 | 119.32870 | 7809 ft | 287 kts | 322° |
| 2026-05-05 03:26 | 31.45108 | 119.31480 | 7439 ft | 286 kts | 322° |
| 2026-05-05 03:27 | 31.46704 | 119.30091 | 7040 ft | 285 kts | 323° |
| 2026-05-05 03:27 | 31.48290 | 119.28710 | 6644 ft | 284 kts | 323° |
| 2026-05-05 03:27 | 31.49874 | 119.27330 | 6284 ft | 283 kts | 323° |
| 2026-05-05 03:27 | 31.51451 | 119.25955 | 5938 ft | 282 kts | 322° |
| 2026-05-05 03:28 | 31.53023 | 119.24579 | 5894 ft | 283 kts | 322° |
| 2026-05-05 03:28 | 31.54602 | 119.23196 | 5895 ft | 284 kts | 322° |
| 2026-05-05 03:28 | 31.56184 | 119.21813 | 5875 ft | 283 kts | 323° |
| 2026-05-05 03:28 | 31.57857 | 119.20624 | 5507 ft | 281 kts | 335° |
| 2026-05-05 03:29 | 31.59714 | 119.19917 | 5099 ft | 282 kts | 349° |
| 2026-05-05 03:29 | 31.61658 | 119.19627 | 4758 ft | 281 kts | 354° |
| 2026-05-05 03:29 | 31.63602 | 119.19375 | 4382 ft | 280 kts | 353° |
| 2026-05-05 03:29 | 31.65537 | 119.19117 | 4019 ft | 279 kts | 353° |
| 2026-05-05 03:30 | 31.67464 | 119.18857 | 3884 ft | 278 kts | 353° |
| 2026-05-05 03:30 | 31.69392 | 119.18595 | 3904 ft | 280 kts | 353° |
| 2026-05-05 03:30 | 31.71327 | 119.18333 | 3892 ft | 279 kts | 353° |
| 2026-05-05 03:30 | 31.73264 | 119.18072 | 3894 ft | 280 kts | 353° |
| 2026-05-05 03:31 | 31.75183 | 119.17815 | 3894 ft | 271 kts | 353° |
| 2026-05-05 03:31 | 31.77006 | 119.17572 | 3893 ft | 257 kts | 353° |
| 2026-05-05 03:31 | 31.78707 | 119.17207 | 3899 ft | 241 kts | 340° |
| 2026-05-05 03:31 | 31.80180 | 119.16399 | 3890 ft | 228 kts | 325° |
| 2026-05-05 03:32 | 31.81516 | 119.15414 | 3895 ft | 225 kts | 326° |
| 2026-05-05 03:32 | 31.82839 | 119.14449 | 3896 ft | 224 kts | 326° |
| 2026-05-05 03:32 | 31.84040 | 119.13379 | 3893 ft | 210 kts | 307° |
| 2026-05-05 03:32 | 31.84695 | 119.11935 | 3772 ft | 194 kts | 280° |
| 2026-05-05 03:33 | 31.84743 | 119.10397 | 3491 ft | 186 kts | 255° |
| 2026-05-05 03:33 | 31.84239 | 119.09026 | 3165 ft | 182 kts | 235° |
| 2026-05-05 03:33 | 31.83568 | 119.07766 | 2921 ft | 180 kts | 236° |
| 2026-05-05 03:33 | 31.82899 | 119.06508 | 2932 ft | 184 kts | 235° |
| 2026-05-05 03:34 | 31.82225 | 119.05237 | 2902 ft | 183 kts | 236° |
| 2026-05-05 03:34 | 31.81551 | 119.03970 | 2903 ft | 182 kts | 236° |
| 2026-05-05 03:34 | 31.80876 | 119.02699 | 2836 ft | 185 kts | 236° |
| 2026-05-05 03:34 | 31.80199 | 119.01425 | 2644 ft | 182 kts | 236° |
| 2026-05-05 03:35 | 31.79551 | 119.00204 | 2407 ft | 168 kts | 236° |
| 2026-05-05 03:35 | 31.78970 | 118.99110 | 2228 ft | 151 kts | 235° |
| 2026-05-05 03:35 | 31.78429 | 118.98093 | 2019 ft | 141 kts | 235° |
| 2026-05-05 03:35 | 31.77923 | 118.97141 | 1839 ft | 134 kts | 234° |
| 2026-05-05 03:36 | 31.77423 | 118.96204 | 1652 ft | 134 kts | 234° |
| 2026-05-05 03:36 | 31.76933 | 118.95283 | 1483 ft | 134 kts | 234° |
| 2026-05-05 03:36 | 31.76437 | 118.94352 | 1309 ft | 134 kts | 234° |
| 2026-05-05 03:36 | 31.75948 | 118.93434 | 1143 ft | 132 kts | 234° |
| 2026-05-05 03:37 | 31.75461 | 118.92520 | 968 ft | 132 kts | 235° |
| 2026-05-05 03:37 | 31.74971 | 118.91599 | 785 ft | 133 kts | 236° |
| 2026-05-05 03:37 | 31.74496 | 118.90694 | 577 ft | 131 kts | 235° |
| 2026-05-05 03:37 | 31.74013 | 118.89787 | 390 ft | 131 kts | 237° |
| 2026-05-05 03:38 | 31.73526 | 118.88878 | 224 ft | 132 kts | 237° |
| 2026-05-05 03:38 | 31.73038 | 118.87975 | 92 ft | 130 kts | 238° |
| 2026-05-05 03:38 | 31.72591 | 118.87136 | 53 ft | 98 kts | 238° |
| 2026-05-05 03:38 | 31.72339 | 118.86663 | 52 ft | 32 kts | 242° |
| 2026-05-05 03:39 | 31.72296 | 118.86462 | 58 ft | 22 kts | 268° |
| 2026-05-05 03:39 | 31.72313 | 118.86321 | 52 ft | 13 kts | 316° |
| 2026-05-05 03:39 | 31.72391 | 118.86267 | 55 ft | 12 kts | 342° |
| 2026-05-05 03:39 | 31.72451 | 118.86314 | 57 ft | 11 kts | 59° |
| 2026-05-05 03:40 | 31.72491 | 118.86389 | 56 ft | 12 kts | 57° |
| 2026-05-05 03:40 | 31.72544 | 118.86488 | 54 ft | 13 kts | 58° |
| 2026-05-05 03:40 | 31.72591 | 118.86576 | 53 ft | 12 kts | 57° |
| 2026-05-05 03:40 | 31.72635 | 118.86657 | 56 ft | 11 kts | 58° |
| 2026-05-05 03:41 | 31.72649 | 118.86685 | 55 ft | 0 kts | 58° |